createdAt,value
2022-10-24T00:00:00.987Z,16.58
2022-10-24T00:01:00.675Z,16.59
2022-10-24T00:02:00.665Z,16.59
2022-10-24T00:03:00.722Z,16.59
2022-10-24T00:04:00.698Z,16.59
2022-10-24T00:05:00.910Z,16.59
2022-10-24T00:06:00.618Z,16.59
2022-10-24T00:07:00.587Z,16.59
2022-10-24T00:08:02.540Z,16.59
2022-10-24T00:09:00.566Z,16.59
2022-10-24T00:10:00.569Z,16.60
2022-10-24T00:11:00.857Z,16.59
2022-10-24T00:12:00.549Z,16.59
2022-10-24T00:13:00.541Z,16.59
2022-10-24T00:14:00.509Z,16.58
2022-10-24T00:15:00.503Z,16.59
2022-10-24T00:16:00.501Z,16.58
2022-10-24T00:17:00.785Z,16.58
2022-10-24T00:18:00.467Z,16.58
2022-10-24T00:19:00.464Z,16.56
2022-10-24T00:20:00.452Z,16.56
2022-10-24T00:21:00.464Z,16.55
2022-10-24T00:22:00.633Z,16.55
2022-10-24T00:23:00.399Z,16.55
2022-10-24T00:24:00.653Z,16.56
2022-10-24T00:25:00.370Z,16.56
2022-10-24T00:26:00.360Z,16.55
2022-10-24T00:27:00.368Z,16.55
2022-10-24T00:28:00.624Z,16.55
2022-10-24T00:30:00.324Z,16.56
2022-10-24T00:31:00.326Z,16.55
2022-10-24T00:32:00.307Z,16.55
2022-10-24T00:33:00.296Z,16.53
2022-10-24T00:34:00.596Z,16.55
2022-10-24T00:35:00.274Z,16.53
2022-10-24T00:36:00.266Z,16.53
2022-10-24T00:37:00.247Z,16.50
2022-10-24T00:38:00.238Z,16.50
2022-10-24T00:39:00.475Z,16.49
2022-10-24T00:40:00.218Z,16.49
2022-10-24T00:41:00.204Z,16.49
2022-10-24T00:42:00.174Z,16.45
2022-10-24T00:43:00.160Z,16.44
2022-10-24T00:44:00.157Z,16.42
2022-10-24T00:45:00.445Z,16.42
2022-10-24T00:46:00.129Z,16.42
2022-10-24T00:47:00.383Z,16.42
2022-10-24T00:48:00.109Z,16.41
2022-10-24T00:49:00.103Z,16.40
2022-10-24T00:50:00.090Z,16.40
2022-10-24T00:51:00.076Z,16.42
2022-10-24T00:52:00.283Z,16.41
2022-10-24T00:53:00.065Z,16.41
2022-10-24T00:54:00.047Z,16.41
2022-10-24T00:55:00.040Z,16.42
2022-10-24T00:56:00.029Z,16.42
2022-10-24T00:57:00.263Z,16.44
2022-10-24T00:57:59.991Z,16.45
2022-10-24T00:58:59.971Z,16.44
2022-10-24T01:00:00.298Z,16.48
2022-10-24T01:01:00.031Z,16.49
2022-10-24T01:01:59.944Z,16.53
2022-10-24T01:02:59.932Z,16.55
2022-10-24T01:03:59.920Z,16.58
2022-10-24T01:05:00.161Z,16.60
2022-10-24T01:05:59.903Z,16.60
2022-10-24T01:06:59.882Z,16.62
2022-10-24T01:07:59.886Z,16.63
2022-10-24T01:08:59.867Z,16.67
2022-10-24T01:09:59.856Z,16.65
2022-10-24T01:11:00.049Z,16.67
2022-10-24T01:12:00.110Z,16.68
2022-10-24T01:13:00.107Z,16.70
2022-10-24T01:13:59.804Z,16.70
2022-10-24T01:14:59.786Z,16.73
2022-10-24T01:15:59.775Z,16.74
2022-10-24T01:16:59.778Z,16.74
2022-10-24T01:17:59.755Z,16.77
2022-10-24T01:18:59.982Z,16.80
2022-10-24T01:19:59.749Z,16.81
2022-10-24T01:20:59.725Z,16.83
2022-10-24T01:21:59.707Z,16.85
2022-10-24T01:22:59.961Z,16.85
2022-10-24T01:23:59.687Z,16.88
2022-10-24T01:24:59.688Z,16.86
2022-10-24T01:25:59.658Z,16.90
2022-10-24T01:26:59.658Z,16.90
2022-10-24T01:27:59.940Z,16.93
2022-10-24T01:28:59.621Z,16.93
2022-10-24T01:29:59.630Z,16.92
2022-10-24T01:30:59.615Z,16.93
2022-10-24T01:31:59.589Z,16.95
2022-10-24T01:32:59.587Z,16.95
2022-10-24T01:33:59.871Z,16.96
2022-10-24T01:34:59.564Z,16.98
2022-10-24T01:35:59.541Z,16.99
2022-10-24T01:36:59.531Z,16.98
2022-10-24T01:37:59.512Z,16.96
2022-10-24T01:38:59.756Z,16.96
2022-10-24T01:39:59.493Z,16.98
2022-10-24T01:40:59.502Z,16.96
2022-10-24T01:41:59.473Z,16.96
2022-10-24T01:42:59.453Z,16.95
2022-10-24T01:43:59.446Z,16.95
2022-10-24T01:44:59.445Z,16.95
2022-10-24T01:45:59.761Z,16.93
2022-10-24T01:46:59.405Z,16.93
2022-10-24T01:47:59.403Z,16.92
2022-10-24T01:48:59.385Z,16.92
2022-10-24T01:49:59.388Z,16.90
2022-10-24T01:50:59.379Z,16.90
2022-10-24T01:51:59.686Z,16.89
2022-10-24T01:53:02.105Z,16.90
2022-10-24T01:53:59.339Z,16.92
2022-10-24T01:54:59.316Z,16.92
2022-10-24T01:55:59.298Z,16.93
2022-10-24T01:56:59.288Z,16.95
2022-10-24T01:57:59.291Z,16.93
2022-10-24T01:58:59.541Z,16.95
2022-10-24T01:59:59.256Z,16.96
2022-10-24T02:00:59.268Z,16.98
2022-10-24T02:01:59.238Z,17.00
2022-10-24T02:02:59.235Z,17.03
2022-10-24T02:03:59.522Z,17.00
2022-10-24T02:04:59.192Z,17.03
2022-10-24T02:05:59.181Z,17.03
2022-10-24T02:06:59.188Z,17.04
2022-10-24T02:07:59.480Z,17.04
2022-10-24T02:08:59.502Z,17.06
2022-10-24T02:09:59.165Z,17.07
2022-10-24T02:10:59.134Z,17.08
2022-10-24T02:11:59.127Z,17.10
2022-10-24T02:12:59.133Z,17.11
2022-10-24T02:13:59.092Z,17.13
2022-10-24T02:14:59.365Z,17.13
2022-10-24T02:15:59.076Z,17.11
2022-10-24T02:16:59.053Z,17.13
2022-10-24T02:17:59.044Z,17.13
2022-10-24T02:18:59.024Z,17.13
2022-10-24T02:19:59.323Z,17.14
2022-10-24T02:20:59.020Z,17.14
2022-10-24T02:21:59.016Z,17.14
2022-10-24T02:22:58.975Z,17.14
2022-10-24T02:23:58.988Z,17.14
2022-10-24T02:24:59.238Z,17.14
2022-10-24T02:25:58.958Z,17.15
2022-10-24T02:26:58.947Z,17.15
2022-10-24T02:27:58.925Z,17.15
2022-10-24T02:28:58.907Z,17.18
2022-10-24T02:29:59.231Z,17.18
2022-10-24T02:30:58.899Z,17.17
2022-10-24T02:31:58.876Z,17.18
2022-10-24T02:32:58.858Z,17.20
2022-10-24T02:33:59.250Z,17.18
2022-10-24T02:34:58.852Z,17.18
2022-10-24T02:35:58.848Z,17.18
2022-10-24T02:36:58.809Z,17.18
2022-10-24T02:37:58.809Z,17.18
2022-10-24T02:38:58.803Z,17.20
2022-10-24T02:39:59.073Z,17.20
2022-10-24T02:40:58.789Z,17.20
2022-10-24T02:41:58.751Z,17.18
2022-10-24T02:42:58.753Z,17.18
2022-10-24T02:43:58.747Z,17.18
2022-10-24T02:44:58.741Z,17.15
2022-10-24T02:45:58.954Z,17.17
2022-10-24T02:46:58.711Z,17.17
2022-10-24T02:47:59.024Z,17.17
2022-10-24T02:48:58.666Z,17.18
2022-10-24T02:49:58.675Z,17.18
2022-10-24T02:50:58.645Z,17.20
2022-10-24T02:51:58.634Z,17.22
2022-10-24T02:52:58.624Z,17.20
2022-10-24T02:53:58.928Z,17.22
2022-10-24T02:54:58.914Z,17.22
2022-10-24T02:56:00.063Z,17.23
2022-10-24T02:56:58.597Z,17.22
2022-10-24T02:57:58.579Z,17.20
2022-10-24T02:58:58.606Z,17.18
2022-10-24T02:59:58.556Z,17.18
2022-10-24T03:00:58.898Z,17.17
2022-10-24T03:01:58.539Z,17.17
2022-10-24T03:02:58.520Z,17.17
2022-10-24T03:03:58.496Z,17.18
2022-10-24T03:04:58.492Z,17.17
2022-10-24T03:05:58.467Z,17.17
2022-10-24T03:06:58.784Z,17.15
2022-10-24T03:07:58.472Z,17.15
2022-10-24T03:08:58.458Z,17.17
2022-10-24T03:09:58.426Z,17.17
2022-10-24T03:10:58.409Z,17.15
2022-10-24T03:11:58.406Z,17.15
2022-10-24T03:13:00.590Z,17.20
2022-10-24T03:13:58.380Z,17.20
2022-10-24T03:14:58.374Z,17.22
2022-10-24T03:15:58.374Z,17.20
2022-10-24T03:16:58.340Z,17.22
2022-10-24T03:17:58.653Z,17.23
2022-10-24T03:18:58.311Z,17.25
2022-10-24T03:19:58.546Z,17.26
2022-10-24T03:20:58.305Z,17.28
2022-10-24T03:21:58.299Z,17.28
2022-10-24T03:22:58.276Z,17.26
2022-10-24T03:23:58.330Z,17.26
2022-10-24T03:24:58.257Z,17.26
2022-10-24T03:25:58.553Z,17.25
2022-10-24T03:26:58.224Z,17.25
2022-10-24T03:27:58.225Z,17.23
2022-10-24T03:28:58.208Z,17.23
2022-10-24T03:29:58.206Z,17.20
2022-10-24T03:30:58.175Z,17.20
2022-10-24T03:31:58.365Z,17.22
2022-10-24T03:32:58.169Z,17.23
2022-10-24T03:33:58.136Z,17.23
2022-10-24T03:34:58.126Z,17.25
2022-10-24T03:35:58.129Z,17.28
2022-10-24T03:36:58.120Z,17.26
2022-10-24T03:37:58.397Z,17.28
2022-10-24T03:38:58.099Z,17.29
2022-10-24T03:39:58.270Z,17.26
2022-10-24T03:40:58.062Z,17.28
2022-10-24T03:41:58.039Z,17.26
2022-10-24T03:42:58.054Z,17.26
2022-10-24T03:43:58.019Z,17.26
2022-10-24T03:44:58.009Z,17.26
2022-10-24T03:45:58.199Z,17.28
2022-10-24T03:46:58.005Z,17.26
2022-10-24T03:47:57.972Z,17.26
2022-10-24T03:48:58.036Z,17.28
2022-10-24T03:49:57.952Z,17.25
2022-10-24T03:50:58.165Z,17.26
2022-10-24T03:51:57.946Z,17.26
2022-10-24T03:52:57.929Z,17.25
2022-10-24T03:53:57.901Z,17.23
2022-10-24T03:54:57.906Z,17.23
2022-10-24T03:55:57.873Z,17.22
2022-10-24T03:56:58.197Z,17.20
2022-10-24T03:57:57.887Z,17.18
2022-10-24T03:58:57.854Z,17.20
2022-10-24T03:59:57.864Z,17.18
2022-10-24T04:00:57.865Z,17.18
2022-10-24T04:01:57.870Z,17.18
2022-10-24T04:02:58.077Z,17.18
2022-10-24T04:03:57.798Z,17.18
2022-10-24T04:04:57.789Z,17.20
2022-10-24T04:05:57.756Z,17.18
2022-10-24T04:06:57.761Z,17.17
2022-10-24T04:07:58.111Z,17.18
2022-10-24T04:08:57.742Z,17.17
2022-10-24T04:09:57.721Z,17.14
2022-10-24T04:10:57.718Z,17.14
2022-10-24T04:11:58.011Z,17.15
2022-10-24T04:12:57.678Z,17.13
2022-10-24T04:13:57.975Z,17.13
2022-10-24T04:15:01.020Z,17.10
2022-10-24T04:15:58.652Z,17.10
2022-10-24T04:16:57.630Z,17.10
2022-10-24T04:17:57.621Z,17.11
2022-10-24T04:18:57.870Z,17.10
2022-10-24T04:19:57.591Z,17.10
2022-10-24T04:20:57.602Z,17.10
2022-10-24T04:21:57.584Z,17.11
2022-10-24T04:22:59.998Z,17.10
2022-10-24T04:23:57.844Z,17.10
2022-10-24T04:24:57.547Z,17.10
2022-10-24T04:25:57.513Z,17.08
2022-10-24T04:26:57.512Z,17.10
2022-10-24T04:27:57.825Z,17.11
2022-10-24T04:28:57.506Z,17.11
2022-10-24T04:29:57.723Z,17.10
2022-10-24T04:30:57.479Z,17.10
2022-10-24T04:31:57.459Z,17.08
2022-10-24T04:32:57.444Z,17.10
2022-10-24T04:33:57.696Z,17.08
2022-10-24T04:34:57.724Z,17.07
2022-10-24T04:35:57.629Z,17.07
2022-10-24T04:36:57.395Z,17.07
2022-10-24T04:37:57.376Z,17.04
2022-10-24T04:38:57.784Z,17.04
2022-10-24T04:39:57.371Z,17.03
2022-10-24T04:40:57.360Z,17.04
2022-10-24T04:41:57.651Z,17.03
2022-10-24T04:42:57.339Z,17.00
2022-10-24T04:43:57.309Z,16.99
2022-10-24T04:44:57.314Z,16.96
2022-10-24T04:45:57.603Z,16.96
2022-10-24T04:46:57.313Z,16.98
2022-10-24T04:47:57.280Z,16.99
2022-10-24T04:48:57.259Z,16.98
2022-10-24T04:49:57.260Z,16.98
2022-10-24T04:50:57.243Z,16.99
2022-10-24T04:51:57.243Z,16.98
2022-10-24T04:52:57.226Z,16.99
2022-10-24T04:53:57.205Z,16.99
2022-10-24T04:54:57.205Z,16.98
2022-10-24T04:55:57.186Z,16.96
2022-10-24T04:56:57.181Z,16.95
2022-10-24T04:57:57.465Z,16.96
2022-10-24T04:58:57.155Z,16.96
2022-10-24T04:59:57.143Z,16.96
2022-10-24T05:00:57.137Z,16.96
2022-10-24T05:01:57.149Z,16.96
2022-10-24T05:02:59.042Z,16.96
2022-10-24T05:03:57.464Z,16.96
2022-10-24T05:04:57.087Z,16.93
2022-10-24T05:05:57.067Z,16.95
2022-10-24T05:06:57.050Z,16.95
2022-10-24T05:07:57.034Z,16.96
2022-10-24T05:08:57.338Z,16.99
2022-10-24T05:09:57.030Z,16.98
2022-10-24T05:10:57.006Z,16.98
2022-10-24T05:11:56.999Z,16.99
2022-10-24T05:12:56.977Z,16.98
2022-10-24T05:13:56.980Z,16.99
2022-10-24T05:14:57.276Z,16.98
2022-10-24T05:15:56.952Z,16.98
2022-10-24T05:16:56.929Z,16.98
2022-10-24T05:17:56.931Z,17.00
2022-10-24T05:18:56.921Z,17.00
2022-10-24T05:19:56.910Z,17.00
2022-10-24T05:20:57.171Z,17.00
2022-10-24T05:21:56.885Z,16.99
2022-10-24T05:22:56.879Z,16.98
2022-10-24T05:23:56.840Z,16.98
2022-10-24T05:24:57.163Z,16.98
2022-10-24T05:25:56.840Z,16.99
2022-10-24T05:26:56.825Z,16.99
2022-10-24T05:27:56.799Z,16.99
2022-10-24T05:28:57.170Z,17.00
2022-10-24T05:29:56.772Z,16.99
2022-10-24T05:30:57.081Z,17.00
2022-10-24T05:31:56.765Z,17.04
2022-10-24T05:32:56.784Z,17.04
2022-10-24T05:33:56.732Z,17.03
2022-10-24T05:34:56.734Z,17.00
2022-10-24T05:35:56.728Z,17.03
2022-10-24T05:36:56.707Z,17.00
2022-10-24T05:37:56.682Z,16.99
2022-10-24T05:38:56.984Z,16.99
2022-10-24T05:39:56.656Z,17.00
2022-10-24T05:40:56.666Z,16.99
2022-10-24T05:41:56.650Z,16.99
2022-10-24T05:42:56.636Z,16.98
2022-10-24T05:43:56.615Z,16.98
2022-10-24T05:45:03.684Z,16.98
2022-10-24T05:45:56.603Z,16.96
2022-10-24T05:46:56.598Z,16.95
2022-10-24T05:47:56.574Z,16.96
2022-10-24T05:48:56.884Z,16.96
2022-10-24T05:49:56.556Z,16.98
2022-10-24T05:50:56.533Z,16.99
2022-10-24T05:51:56.536Z,17.00
2022-10-24T05:52:56.525Z,17.03
2022-10-24T05:53:56.516Z,17.04
2022-10-24T05:55:06.975Z,17.04
2022-10-24T05:55:57.472Z,17.06
2022-10-24T05:56:56.454Z,17.06
2022-10-24T05:57:56.459Z,17.07
2022-10-24T05:58:56.458Z,17.11
2022-10-24T05:59:56.439Z,17.11
2022-10-24T06:00:56.448Z,17.11
2022-10-24T06:01:56.544Z,17.13
2022-10-24T06:02:56.399Z,17.13
2022-10-24T06:03:56.393Z,17.13
2022-10-24T06:04:56.389Z,17.14
2022-10-24T06:05:56.671Z,17.14
2022-10-24T06:06:56.348Z,17.17
2022-10-24T06:07:56.351Z,17.17
2022-10-24T06:08:56.340Z,17.18
2022-10-24T06:09:56.310Z,17.20
2022-10-24T06:10:56.548Z,17.20
2022-10-24T06:11:56.310Z,17.20
2022-10-24T06:12:56.289Z,17.20
2022-10-24T06:13:56.295Z,17.20
2022-10-24T06:14:56.279Z,17.18
2022-10-24T06:15:56.241Z,17.22
2022-10-24T06:16:56.532Z,17.22
2022-10-24T06:17:56.233Z,17.20
2022-10-24T06:18:56.209Z,17.22
2022-10-24T06:19:56.195Z,17.22
2022-10-24T06:20:56.276Z,17.23
2022-10-24T06:21:56.161Z,17.23
2022-10-24T06:22:56.425Z,17.23
2022-10-24T06:23:56.150Z,17.26
2022-10-24T06:24:56.146Z,17.26
2022-10-24T06:25:56.137Z,17.28
2022-10-24T06:26:56.127Z,17.28
2022-10-24T06:27:56.122Z,17.28
2022-10-24T06:28:56.104Z,17.28
2022-10-24T06:29:56.088Z,17.28
2022-10-24T06:30:56.067Z,17.28
2022-10-24T06:31:56.075Z,17.29
2022-10-24T06:32:56.057Z,17.30
2022-10-24T06:33:56.052Z,17.32
2022-10-24T06:34:56.265Z,17.30
2022-10-24T06:35:55.995Z,17.32
2022-10-24T06:36:56.001Z,17.30
2022-10-24T06:37:55.992Z,17.32
2022-10-24T06:38:55.988Z,17.32
2022-10-24T06:39:55.970Z,17.35
2022-10-24T06:40:56.271Z,17.33
2022-10-24T06:41:55.940Z,17.33
2022-10-24T06:42:55.935Z,17.30
2022-10-24T06:43:55.923Z,17.32
2022-10-24T06:44:55.969Z,17.33
2022-10-24T06:45:55.901Z,17.33
2022-10-24T06:46:55.910Z,17.33
2022-10-24T06:47:56.413Z,17.33
2022-10-24T06:48:55.876Z,17.33
2022-10-24T06:49:55.853Z,17.33
2022-10-24T06:50:55.830Z,17.35
2022-10-24T06:51:56.135Z,17.35
2022-10-24T06:52:55.814Z,17.35
2022-10-24T06:53:55.783Z,17.36
2022-10-24T06:54:55.780Z,17.36
2022-10-24T06:55:55.785Z,17.36
2022-10-24T06:56:55.775Z,17.38
2022-10-24T06:57:56.054Z,17.38
2022-10-24T06:58:55.732Z,17.38
2022-10-24T06:59:55.713Z,17.38
2022-10-24T07:00:55.778Z,17.38
2022-10-24T07:01:55.839Z,17.38
2022-10-24T07:02:55.689Z,17.40
2022-10-24T07:03:55.687Z,17.40
2022-10-24T07:04:55.677Z,17.40
2022-10-24T07:05:55.668Z,17.38
2022-10-24T07:06:55.849Z,17.38
2022-10-24T07:07:55.624Z,17.40
2022-10-24T07:08:55.628Z,17.40
2022-10-24T07:09:55.597Z,17.40
2022-10-24T07:10:55.596Z,17.40
2022-10-24T07:11:55.840Z,17.40
2022-10-24T07:12:55.600Z,17.40
2022-10-24T07:13:59.551Z,17.40
2022-10-24T07:14:56.537Z,17.40
2022-10-24T07:15:55.541Z,17.41
2022-10-24T07:16:55.532Z,17.43
2022-10-24T07:17:55.780Z,17.44
2022-10-24T07:18:55.493Z,17.46
2022-10-24T07:19:55.504Z,17.47
2022-10-24T07:20:55.483Z,17.47
2022-10-24T07:21:55.464Z,17.48
2022-10-24T07:22:55.769Z,17.53
2022-10-24T07:23:55.432Z,17.53
2022-10-24T07:24:55.503Z,17.57
2022-10-24T07:25:55.401Z,17.59
2022-10-24T07:26:55.401Z,17.62
2022-10-24T07:27:55.393Z,17.64
2022-10-24T07:28:55.609Z,17.67
2022-10-24T07:29:55.377Z,17.70
2022-10-24T07:30:55.653Z,17.73
2022-10-24T07:31:55.335Z,17.73
2022-10-24T07:32:55.332Z,17.76
2022-10-24T07:33:55.335Z,17.78
2022-10-24T07:34:55.638Z,17.78
2022-10-24T07:35:55.295Z,17.81
2022-10-24T07:36:55.298Z,17.82
2022-10-24T07:37:55.277Z,17.85
2022-10-24T07:38:55.599Z,17.87
2022-10-24T07:39:55.259Z,17.88
2022-10-24T07:40:55.252Z,17.88
2022-10-24T07:41:55.237Z,17.89
2022-10-24T07:42:55.206Z,17.92
2022-10-24T07:43:55.210Z,17.99
2022-10-24T07:44:55.501Z,18.02
2022-10-24T07:45:55.212Z,18.06
2022-10-24T07:46:55.168Z,18.12
2022-10-24T07:47:55.149Z,18.18
2022-10-24T07:48:55.141Z,18.22
2022-10-24T07:49:55.328Z,18.27
2022-10-24T07:50:55.122Z,18.31
2022-10-24T07:51:55.121Z,18.34
2022-10-24T07:52:55.101Z,18.34
2022-10-24T07:53:55.080Z,18.36
2022-10-24T07:54:55.071Z,18.42
2022-10-24T07:55:55.101Z,18.44
2022-10-24T07:56:55.061Z,18.50
2022-10-24T07:57:55.032Z,18.50
2022-10-24T07:58:55.074Z,18.54
2022-10-24T07:59:55.028Z,18.54
2022-10-24T08:00:55.019Z,18.58
2022-10-24T08:01:55.257Z,18.58
2022-10-24T08:02:54.987Z,18.58
2022-10-24T08:03:54.976Z,18.61
2022-10-24T08:04:54.944Z,18.62
2022-10-24T08:05:54.956Z,18.59
2022-10-24T08:06:55.234Z,18.58
2022-10-24T08:07:56.100Z,18.57
2022-10-24T08:08:55.906Z,18.55
2022-10-24T08:09:54.908Z,18.54
2022-10-24T08:10:54.943Z,18.52
2022-10-24T08:11:54.888Z,18.47
2022-10-24T08:12:55.176Z,18.46
2022-10-24T08:13:54.847Z,18.47
2022-10-24T08:14:54.835Z,18.46
2022-10-24T08:15:54.827Z,18.46
2022-10-24T08:16:54.821Z,18.43
2022-10-24T08:17:55.006Z,18.46
2022-10-24T08:18:54.788Z,18.50
2022-10-24T08:19:54.778Z,18.55
2022-10-24T08:20:54.760Z,18.59
2022-10-24T08:21:54.776Z,18.61
2022-10-24T08:22:54.759Z,18.61
2022-10-24T08:23:54.746Z,18.59
2022-10-24T08:24:54.719Z,18.58
2022-10-24T08:25:54.705Z,18.58
2022-10-24T08:26:54.711Z,18.58
2022-10-24T08:27:54.725Z,18.58
2022-10-24T08:28:54.685Z,18.58
2022-10-24T08:29:54.662Z,18.59
2022-10-24T08:30:54.663Z,18.58
2022-10-24T08:31:54.655Z,18.61
2022-10-24T08:32:54.639Z,18.64
2022-10-24T08:33:54.932Z,18.61
2022-10-24T08:34:54.602Z,18.61
2022-10-24T08:35:54.606Z,18.59
2022-10-24T08:36:54.582Z,18.62
2022-10-24T08:37:54.586Z,18.65
2022-10-24T08:38:54.554Z,18.65
2022-10-24T08:39:54.874Z,18.65
2022-10-24T08:40:54.532Z,18.67
2022-10-24T08:41:56.658Z,18.64
2022-10-24T08:42:54.839Z,18.62
2022-10-24T08:43:54.498Z,18.61
2022-10-24T08:44:54.487Z,18.61
2022-10-24T08:45:54.477Z,18.61
2022-10-24T08:46:54.469Z,18.61
2022-10-24T08:47:54.685Z,18.64
2022-10-24T08:48:54.451Z,18.62
2022-10-24T08:49:54.443Z,18.62
2022-10-24T08:50:54.470Z,18.58
2022-10-24T08:51:54.683Z,18.59
2022-10-24T08:52:54.412Z,18.58
2022-10-24T08:53:54.393Z,18.57
2022-10-24T08:54:54.383Z,18.57
2022-10-24T08:55:54.573Z,18.54
2022-10-24T08:56:54.363Z,18.54
2022-10-24T08:57:54.334Z,18.50
2022-10-24T08:58:54.322Z,18.49
2022-10-24T08:59:54.333Z,18.49
2022-10-24T09:00:54.410Z,18.49
2022-10-24T09:01:54.685Z,18.49
2022-10-24T09:02:54.422Z,18.49
2022-10-24T09:03:56.894Z,18.49
2022-10-24T09:04:54.274Z,18.50
2022-10-24T09:05:54.243Z,18.47
2022-10-24T09:06:54.258Z,18.43
2022-10-24T09:07:54.238Z,18.39
2022-10-24T09:08:54.209Z,18.34
2022-10-24T09:09:54.215Z,18.31
2022-10-24T09:10:54.196Z,18.33
2022-10-24T09:11:54.188Z,18.33
2022-10-24T09:12:54.159Z,18.29
2022-10-24T09:13:54.161Z,18.29
2022-10-24T09:14:54.156Z,18.27
2022-10-24T09:15:54.410Z,18.28
2022-10-24T09:16:54.159Z,18.29
2022-10-24T09:17:54.132Z,18.31
2022-10-24T09:18:54.157Z,18.31
2022-10-24T09:19:54.121Z,18.33
2022-10-24T09:20:54.153Z,18.29
2022-10-24T09:21:54.418Z,18.29
2022-10-24T09:22:54.080Z,18.29
2022-10-24T09:23:54.062Z,18.28
2022-10-24T09:24:54.033Z,18.27
2022-10-24T09:25:54.021Z,18.29
2022-10-24T09:26:54.024Z,18.29
2022-10-24T09:27:54.012Z,18.28
2022-10-24T09:28:53.973Z,18.28
2022-10-24T09:29:53.958Z,18.28
2022-10-24T09:30:53.941Z,18.28
2022-10-24T09:31:54.174Z,18.27
2022-10-24T09:32:53.935Z,18.28
2022-10-24T09:33:53.946Z,18.25
2022-10-24T09:34:53.895Z,18.24
2022-10-24T09:35:53.905Z,18.24
2022-10-24T09:36:53.873Z,18.27
2022-10-24T09:37:54.401Z,18.27
2022-10-24T09:38:53.866Z,18.27
2022-10-24T09:39:53.844Z,18.28
2022-10-24T09:40:53.841Z,18.29
2022-10-24T09:41:53.815Z,18.33
2022-10-24T09:42:53.835Z,18.34
2022-10-24T09:43:53.795Z,18.36
2022-10-24T09:44:53.789Z,18.39
2022-10-24T09:45:53.780Z,18.37
2022-10-24T09:46:53.766Z,18.39
2022-10-24T09:47:53.763Z,18.36
2022-10-24T09:48:54.050Z,18.33
2022-10-24T09:49:53.733Z,18.36
2022-10-24T09:50:53.722Z,18.34
2022-10-24T09:51:53.723Z,18.34
2022-10-24T09:52:53.682Z,18.33
2022-10-24T09:53:53.980Z,18.31
2022-10-24T09:54:53.681Z,18.33
2022-10-24T09:55:53.664Z,18.34
2022-10-24T09:56:54.642Z,18.33
2022-10-24T09:57:53.642Z,18.36
2022-10-24T09:58:53.611Z,18.36
2022-10-24T09:59:53.921Z,18.33
2022-10-24T10:00:53.605Z,18.31
2022-10-24T10:01:53.698Z,18.31
2022-10-24T10:02:53.565Z,18.31
2022-10-24T10:03:53.577Z,18.29
2022-10-24T10:04:53.556Z,18.31
2022-10-24T10:05:53.810Z,18.33
2022-10-24T10:06:53.576Z,18.33
2022-10-24T10:07:53.524Z,18.33
2022-10-24T10:08:53.714Z,18.29
2022-10-24T10:09:56.468Z,18.29
2022-10-24T10:10:53.473Z,18.28
2022-10-24T10:12:01.921Z,18.29
2022-10-24T10:12:54.461Z,18.28
2022-10-24T10:13:53.455Z,18.28
2022-10-24T10:14:53.464Z,18.28
2022-10-24T10:15:53.414Z,18.29
2022-10-24T10:16:53.487Z,18.29
2022-10-24T10:17:53.411Z,18.31
2022-10-24T10:18:53.712Z,18.33
2022-10-24T10:19:53.374Z,18.43
2022-10-24T10:20:53.628Z,18.55
2022-10-24T10:21:53.376Z,18.68
2022-10-24T10:22:53.361Z,18.79
2022-10-24T10:23:53.568Z,18.91
2022-10-24T10:24:53.314Z,18.95
2022-10-24T10:25:53.298Z,18.94
2022-10-24T10:26:53.303Z,18.92
2022-10-24T10:27:53.292Z,18.90
2022-10-24T10:28:53.469Z,18.87
2022-10-24T10:29:53.254Z,18.84
2022-10-24T10:30:53.242Z,18.83
2022-10-24T10:31:53.246Z,18.83
2022-10-24T10:32:53.212Z,18.80
2022-10-24T10:33:53.204Z,18.76
2022-10-24T10:34:53.476Z,18.74
2022-10-24T10:35:53.183Z,18.74
2022-10-24T10:36:53.199Z,18.70
2022-10-24T10:37:53.154Z,18.73
2022-10-24T10:38:53.144Z,18.73
2022-10-24T10:39:53.444Z,18.72
2022-10-24T10:40:53.152Z,18.70
2022-10-24T10:41:53.182Z,18.72
2022-10-24T10:42:53.140Z,18.74
2022-10-24T10:43:53.086Z,18.76
2022-10-24T10:44:53.089Z,18.74
2022-10-24T10:45:53.087Z,18.74
2022-10-24T10:46:53.049Z,18.73
2022-10-24T10:47:53.080Z,18.73
2022-10-24T10:48:53.028Z,18.73
2022-10-24T10:49:53.031Z,18.76
2022-10-24T10:50:53.018Z,18.74
2022-10-24T10:51:53.011Z,18.77
2022-10-24T10:52:52.999Z,18.73
2022-10-24T10:53:53.302Z,18.77
2022-10-24T10:54:52.972Z,18.76
2022-10-24T10:55:52.963Z,18.77
2022-10-24T10:56:52.940Z,18.79
2022-10-24T10:57:52.951Z,18.76
2022-10-24T10:58:52.911Z,18.77
2022-10-24T10:59:53.274Z,18.79
2022-10-24T11:00:52.891Z,18.82
2022-10-24T11:01:52.974Z,18.79
2022-10-24T11:02:53.049Z,18.77
2022-10-24T11:03:52.873Z,18.74
2022-10-24T11:04:53.176Z,18.72
2022-10-24T11:05:52.832Z,18.68
2022-10-24T11:06:53.181Z,18.68
2022-10-24T11:07:52.828Z,18.67
2022-10-24T11:08:52.797Z,18.67
2022-10-24T11:09:52.806Z,18.64
2022-10-24T11:10:52.788Z,18.64
2022-10-24T11:11:52.778Z,18.61
2022-10-24T11:12:52.765Z,18.59
2022-10-24T11:13:52.799Z,18.61
2022-10-24T11:14:52.727Z,18.61
2022-10-24T11:15:52.716Z,18.61
2022-10-24T11:16:52.706Z,18.59
2022-10-24T11:17:52.729Z,18.59
2022-10-24T11:18:52.693Z,18.61
2022-10-24T11:19:52.682Z,18.59
2022-10-24T11:20:52.973Z,18.58
2022-10-24T11:21:52.648Z,18.61
2022-10-24T11:22:52.648Z,18.58
2022-10-24T11:23:52.642Z,18.59
2022-10-24T11:24:52.611Z,18.61
2022-10-24T11:25:52.651Z,18.62
2022-10-24T11:26:52.604Z,18.65
2022-10-24T11:27:52.579Z,18.67
2022-10-24T11:28:52.561Z,18.68
2022-10-24T11:29:52.551Z,18.67
2022-10-24T11:30:52.553Z,18.68
2022-10-24T11:31:52.581Z,18.68
2022-10-24T11:32:52.526Z,18.68
2022-10-24T11:33:52.512Z,18.68
2022-10-24T11:34:52.706Z,18.67
2022-10-24T11:35:52.509Z,18.64
2022-10-24T11:36:55.007Z,18.62
2022-10-24T11:37:52.454Z,18.59
2022-10-24T11:38:52.443Z,18.61
2022-10-24T11:39:52.457Z,18.61
2022-10-24T11:40:54.795Z,18.62
2022-10-24T11:41:53.475Z,18.62
2022-10-24T11:42:52.397Z,18.65
2022-10-24T11:43:52.400Z,18.62
2022-10-24T11:44:52.389Z,18.62
2022-10-24T11:45:59.692Z,18.62
2022-10-24T11:46:52.363Z,18.67
2022-10-24T11:47:52.371Z,18.64
2022-10-24T11:48:52.363Z,18.64
2022-10-24T11:49:52.326Z,18.64
2022-10-24T11:50:52.315Z,18.64
2022-10-24T11:51:52.292Z,18.65
2022-10-24T11:52:52.282Z,18.65
2022-10-24T11:53:52.515Z,18.65
2022-10-24T11:54:52.283Z,18.62
2022-10-24T11:55:52.467Z,18.59
2022-10-24T11:56:52.253Z,18.57
2022-10-24T11:57:52.248Z,18.54
2022-10-24T11:58:52.226Z,18.50
2022-10-24T11:59:52.216Z,18.49
2022-10-24T12:00:52.197Z,18.46
2022-10-24T12:01:52.404Z,18.47
2022-10-24T12:02:52.243Z,18.46
2022-10-24T12:03:52.158Z,18.44
2022-10-24T12:04:52.168Z,18.42
2022-10-24T12:05:52.137Z,18.39
2022-10-24T12:06:52.436Z,18.39
2022-10-24T12:07:52.117Z,18.39
2022-10-24T12:08:52.098Z,18.39
2022-10-24T12:09:52.092Z,18.37
2022-10-24T12:10:52.095Z,18.36
2022-10-24T12:11:52.058Z,18.34
2022-10-24T12:12:52.099Z,18.36
2022-10-24T12:13:52.121Z,18.37
2022-10-24T12:14:52.041Z,18.39
2022-10-24T12:15:52.026Z,18.37
2022-10-24T12:16:52.022Z,18.36
2022-10-24T12:17:52.012Z,18.36
2022-10-24T12:18:52.221Z,18.37
2022-10-24T12:19:51.966Z,18.37
2022-10-24T12:20:51.990Z,18.37
2022-10-24T12:21:52.207Z,18.40
2022-10-24T12:22:51.945Z,18.37
2022-10-24T12:23:51.926Z,18.37
2022-10-24T12:24:51.905Z,18.37
2022-10-24T12:25:51.892Z,18.37
2022-10-24T12:26:51.902Z,18.34
2022-10-24T12:27:51.893Z,18.34
2022-10-24T12:28:51.875Z,18.34
2022-10-24T12:29:51.844Z,18.34
2022-10-24T12:31:51.823Z,18.36
2022-10-24T12:32:51.851Z,18.39
2022-10-24T12:33:51.809Z,18.37
2022-10-24T12:34:55.138Z,18.36
2022-10-24T12:35:52.778Z,18.36
2022-10-24T12:36:51.780Z,18.36
2022-10-24T12:37:51.777Z,18.36
2022-10-24T12:38:51.744Z,18.37
2022-10-24T12:39:54.843Z,18.37
2022-10-24T12:40:52.718Z,18.34
2022-10-24T12:41:51.709Z,18.34
2022-10-24T12:42:51.698Z,18.34
2022-10-24T12:43:52.068Z,18.34
2022-10-24T12:44:51.682Z,18.31
2022-10-24T12:45:51.670Z,18.29
2022-10-24T12:46:51.650Z,18.31
2022-10-24T12:47:51.660Z,18.27
2022-10-24T12:48:51.644Z,18.25
2022-10-24T12:49:52.146Z,18.27
2022-10-24T12:50:51.601Z,18.25
2022-10-24T12:51:51.592Z,18.27
2022-10-24T12:52:51.583Z,18.29
2022-10-24T12:53:51.561Z,18.31